Time;durP1;ratioP1;P1;durP2;ratioP2;P2;SDS_P1;SDS_P2;PMS_P1;PMS_P2;Temp;Humidity;BMP_temperature;BMP_pressure;BME280_temperature;BME280_humidity;BME280_pressure;Samples;Min_cycle;Max_cycle;Signal;HPM_P1;HPM_P2
2021/04/21 00:02:04;;;;;;;20.77;11.70;;;;;;;;;;5098181;28;20089;-83
2021/04/21 00:04:31;;;;;;;26.33;12.38;;;;;;;;;;5092106;28;20134;-83
2021/04/21 00:06:58;;;;;;;24.70;11.65;;;;;;;;;;5093077;28;20475;-83
2021/04/21 00:09:25;;;;;;;24.40;10.88;;;;;;;;;;5092120;28;20076;-83
2021/04/21 00:11:52;;;;;;;27.85;11.20;;;;;;;;;;5093592;28;20121;-83
2021/04/21 00:14:23;;;;;;;26.85;11.25;;;;;;;;;;5093267;28;20093;-83
2021/04/21 00:16:54;;;;;;;22.33;11.18;;;;;;;;;;5092694;28;20047;-83
2021/04/21 00:19:22;;;;;;;26.35;11.77;;;;;;;;;;5091301;28;20137;-83
2021/04/21 00:21:50;;;;;;;24.58;11.40;;;;;;;;;;5109844;28;20051;-83
2021/04/21 00:24:17;;;;;;;28.10;12.27;;;;;;;;;;5112383;28;20040;-83
2021/04/21 00:29:17;;;;;;;29.02;12.02;;;;;;;;;;5091963;22;20144;-83
2021/04/21 00:31:45;;;;;;;26.88;11.35;;;;;;;;;;5028727;28;20049;-84
2021/04/21 00:34:13;;;;;;;19.90;10.73;;;;;;;;;;5027457;28;20670;-84
2021/04/21 00:36:41;;;;;;;30.98;11.80;;;;;;;;;;5113672;22;20462;-83
2021/04/21 00:39:09;;;;;;;28.17;11.77;;;;;;;;;;5076120;28;20044;-83
2021/04/21 00:41:45;;;;;;;23.67;11.48;;;;;;;;;;5070676;28;20774;-83
2021/04/21 00:44:23;;;;;;;23.20;11.38;;;;;;;;;;5070937;28;20067;-83
2021/04/21 00:46:52;;;;;;;24.50;11.27;;;;;;;;;;5070799;28;20052;-83
2021/04/21 00:49:55;;;;;;;27.98;12.15;;;;;;;;;;5070964;28;20055;-83
2021/04/21 00:52:42;;;;;;;30.83;11.25;;;;;;;;;;5009980;28;20961;-83
2021/04/21 00:55:35;;;;;;;22.98;10.77;;;;;;;;;;5056504;28;20071;-83
2021/04/21 00:58:02;;;;;;;23.13;11.73;;;;;;;;;;5054613;28;20141;-82
2021/04/21 01:00:31;;;;;;;21.30;11.02;;;;;;;;;;5069157;28;20580;-82
2021/04/21 01:03:16;;;;;;;23.60;10.70;;;;;;;;;;5070213;28;20052;-82
2021/04/21 01:05:45;;;;;;;24.08;11.13;;;;;;;;;;5070140;28;20048;-82
2021/04/21 01:08:13;;;;;;;25.77;11.65;;;;;;;;;;5075079;28;20131;-82
2021/04/21 01:10:55;;;;;;;21.83;11.40;;;;;;;;;;5070501;28;20087;-82
2021/04/21 01:13:23;;;;;;;25.00;11.27;;;;;;;;;;5070685;28;20110;-82
2021/04/21 01:15:50;;;;;;;30.50;11.98;;;;;;;;;;5070308;28;20075;-83
2021/04/21 01:18:17;;;;;;;22.13;11.35;;;;;;;;;;5068771;28;20485;-82
2021/04/21 01:20:48;;;;;;;24.00;12.30;;;;;;;;;;5070371;28;20057;-83
2021/04/21 01:23:27;;;;;;;31.10;12.23;;;;;;;;;;5069603;28;20056;-83
2021/04/21 01:26:01;;;;;;;27.92;12.95;;;;;;;;;;5051275;28;20045;-83
2021/04/21 01:28:29;;;;;;;27.40;12.73;;;;;;;;;;5069715;28;20127;-83
2021/04/21 01:30:56;;;;;;;23.77;11.98;;;;;;;;;;5069174;28;20058;-83
2021/04/21 01:33:24;;;;;;;25.73;11.63;;;;;;;;;;5050449;28;20551;-83
2021/04/21 01:35:56;;;;;;;23.67;12.13;;;;;;;;;;5048849;28;20136;-83
2021/04/21 01:38:24;;;;;;;29.88;11.93;;;;;;;;;;5071086;28;20080;-82
2021/04/21 01:40:51;;;;;;;30.23;12.15;;;;;;;;;;5070509;28;20121;-83
2021/04/21 01:43:20;;;;;;;27.88;11.80;;;;;;;;;;5068972;28;20159;-83
2021/04/21 01:49:22;;;;;;;21.98;11.05;;;;;;;;;;5148859;22;20059;-78
2021/04/21 01:51:51;;;;;;;26.50;11.18;;;;;;;;;;5070489;28;20644;-77
2021/04/21 01:54:18;;;;;;;26.15;10.88;;;;;;;;;;5069872;28;20510;-78
2021/04/21 01:56:50;;;;;;;22.85;11.07;;;;;;;;;;5084438;28;20497;-77
2021/04/21 01:59:17;;;;;;;24.77;11.93;;;;;;;;;;5088102;28;20088;-77
2021/04/21 02:01:43;;;;;;;28.23;11.85;;;;;;;;;;5089605;28;20642;-78
2021/04/21 02:04:26;;;;;;;21.17;11.02;;;;;;;;;;5089082;28;20055;-77
2021/04/21 02:06:58;;;;;;;22.83;10.35;;;;;;;;;;5089841;28;20055;-77
2021/04/21 02:09:41;;;;;;;26.77;11.45;;;;;;;;;;5089135;28;20048;-83
2021/04/21 02:12:27;;;;;;;26.52;10.90;;;;;;;;;;5088936;28;20043;-83
2021/04/21 02:14:58;;;;;;;;;;;;;;;;;;5089992;28;20400;-83
2021/04/21 02:17:24;;;;;;;20.92;9.98;;;;;;;;;;5072075;28;19967;-83
2021/04/21 02:19:51;;;;;;;21.98;9.70;;;;;;;;;;5065066;28;20615;-83
2021/04/21 02:22:37;;;;;;;32.10;10.30;;;;;;;;;;5090471;28;20488;-83
2021/04/21 02:25:06;;;;;;;19.85;10.10;;;;;;;;;;5075607;28;20132;-84
2021/04/21 02:27:48;;;;;;;27.40;11.27;;;;;;;;;;5075433;28;20048;-79
2021/04/21 02:30:26;;;;;;;22.30;10.13;;;;;;;;;;5092419;28;20052;-78
2021/04/21 02:32:53;;;;;;;26.70;12.05;;;;;;;;;;5091670;28;20047;-78
2021/04/21 02:35:24;;;;;;;25.20;10.35;;;;;;;;;;5091368;28;20054;-78
2021/04/21 02:38:07;;;;;;;20.08;10.13;;;;;;;;;;5091587;28;20052;-78
2021/04/21 02:40:50;;;;;;;16.17;9.60;;;;;;;;;;5090848;28;20139;-77
2021/04/21 02:43:36;;;;;;;20.67;9.07;;;;;;;;;;5074200;28;20079;-77
2021/04/21 02:46:14;;;;;;;19.52;8.82;;;;;;;;;;5075177;28;20052;-77
2021/04/21 02:49:00;;;;;;;23.52;9.40;;;;;;;;;;5074685;28;20135;-77
2021/04/21 02:51:41;;;;;;;21.80;9.20;;;;;;;;;;5075370;28;20143;-77
2021/04/21 02:54:13;;;;;;;16.35;7.97;;;;;;;;;;5092248;28;20134;-77
2021/04/21 02:56:47;;;;;;;13.48;7.32;;;;;;;;;;5073225;28;20147;-77
2021/04/21 02:59:13;;;;;;;21.83;9.25;;;;;;;;;;5070313;28;20051;-77
2021/04/21 03:02:10;;;;;;;20.88;9.10;;;;;;;;;;5057015;28;20136;-77
2021/04/21 03:04:43;;;;;;;23.00;9.43;;;;;;;;;;5056372;28;20431;-77
2021/04/21 03:07:15;;;;;;;22.13;9.35;;;;;;;;;;5073331;28;20092;-77
2021/04/21 03:09:48;;;;;;;24.27;9.43;;;;;;;;;;5073560;28;20074;-77
2021/04/21 03:12:23;;;;;;;23.75;10.30;;;;;;;;;;5066920;28;20045;-77
2021/04/21 03:14:51;;;;;;;23.38;9.43;;;;;;;;;;5065396;28;20055;-77
2021/04/21 03:17:19;;;;;;;19.95;8.52;;;;;;;;;;5091176;28;20052;-77
2021/04/21 03:19:51;;;;;;;28.45;9.57;;;;;;;;;;5057400;28;20105;-77
2021/04/21 03:22:21;;;;;;;22.55;10.05;;;;;;;;;;5073506;28;20070;-77
2021/04/21 03:24:47;;;;;;;20.05;9.98;;;;;;;;;;5064981;28;20519;-77
2021/04/21 03:27:15;;;;;;;31.30;12.13;;;;;;;;;;5073436;28;20052;-77
2021/04/21 03:29:47;;;;;;;33.78;11.00;;;;;;;;;;5072666;28;20141;-77
2021/04/21 03:32:21;;;;;;;23.55;10.02;;;;;;;;;;5058749;28;20412;-77
2021/04/21 03:34:50;;;;;;;19.55;9.32;;;;;;;;;;5053208;28;20056;-77
2021/04/21 03:37:30;;;;;;;20.73;10.27;;;;;;;;;;5056520;28;20045;-78
2021/04/21 03:39:57;;;;;;;32.13;11.40;;;;;;;;;;5075394;28;20055;-77
2021/04/21 03:42:24;;;;;;;24.70;11.50;;;;;;;;;;5070996;28;20075;-77
2021/04/21 03:44:51;;;;;;;36.25;15.82;;;;;;;;;;5074424;28;20083;-77
2021/04/21 03:47:18;;;;;;;34.42;14.75;;;;;;;;;;5091301;28;20109;-77
2021/04/21 03:49:45;;;;;;;33.58;12.57;;;;;;;;;;5071787;28;20040;-77
2021/04/21 03:52:12;;;;;;;55.50;23.10;;;;;;;;;;5071592;28;20749;-77
2021/04/21 03:54:40;;;;;;;43.20;19.75;;;;;;;;;;5081544;28;20048;-77
2021/04/21 03:57:11;;;;;;;40.30;17.25;;;;;;;;;;5092821;28;20136;-77
2021/04/21 03:59:39;;;;;;;37.92;14.80;;;;;;;;;;5091947;28;20561;-77
2021/04/21 04:02:08;;;;;;;53.75;21.55;;;;;;;;;;5171060;22;20044;-82
2021/04/21 04:04:37;;;;;;;52.67;20.42;;;;;;;;;;5082071;28;20075;-83
2021/04/21 04:07:09;;;;;;;48.53;22.30;;;;;;;;;;5089152;28;20048;-83
2021/04/21 04:09:37;;;;;;;43.80;17.60;;;;;;;;;;5089763;28;20489;-83
2021/04/21 04:12:05;;;;;;;36.63;18.38;;;;;;;;;;5089992;28;20089;-83
2021/04/21 04:14:34;;;;;;;56.97;18.05;;;;;;;;;;5090759;28;20048;-84
2021/04/21 04:17:03;;;;;;;40.55;15.15;;;;;;;;;;5092523;28;20105;-84
2021/04/21 04:19:34;;;;;;;31.05;13.30;;;;;;;;;;5092260;28;20055;-83
2021/04/21 04:22:04;;;;;;;37.33;14.40;;;;;;;;;;5093351;28;20056;-83
2021/04/21 04:24:34;;;;;;;31.23;13.00;;;;;;;;;;5091725;28;20518;-84
2021/04/21 04:27:02;;;;;;;42.88;11.75;;;;;;;;;;5092648;28;20052;-85
2021/04/21 04:29:29;;;;;;;28.67;12.18;;;;;;;;;;5092067;28;20044;-84
2021/04/21 04:31:57;;;;;;;28.65;12.40;;;;;;;;;;5093338;28;20480;-85
2021/04/21 04:34:24;;;;;;;31.08;13.13;;;;;;;;;;5103385;28;20063;-85
2021/04/21 04:36:51;;;;;;;30.65;12.32;;;;;;;;;;5073631;28;20071;-85
2021/04/21 04:39:18;;;;;;;31.00;13.38;;;;;;;;;;5071237;28;20053;-85
2021/04/21 04:41:45;;;;;;;30.35;12.00;;;;;;;;;;5084552;28;20105;-85
2021/04/21 04:44:12;;;;;;;21.60;9.48;;;;;;;;;;5091934;28;20454;-84
2021/04/21 04:46:49;;;;;;;26.00;11.45;;;;;;;;;;5092733;28;20080;-82
2021/04/21 04:49:21;;;;;;;23.10;10.07;;;;;;;;;;5075875;28;20053;-81
2021/04/21 04:51:48;;;;;;;29.10;11.25;;;;;;;;;;5071391;28;20056;-81
2021/04/21 04:54:15;;;;;;;29.80;11.07;;;;;;;;;;5090599;28;20089;-81
2021/04/21 04:56:45;;;;;;;35.25;12.48;;;;;;;;;;5091599;28;20474;-81
2021/04/21 04:59:13;;;;;;;29.05;11.23;;;;;;;;;;5088432;28;20092;-79
2021/04/21 05:01:39;;;;;;;22.85;10.07;;;;;;;;;;5071554;28;20098;-83
2021/04/21 05:04:09;;;;;;;22.83;10.55;;;;;;;;;;5088470;28;20385;-80
2021/04/21 05:06:38;;;;;;;29.42;11.23;;;;;;;;;;5105538;28;20078;-80
2021/04/21 05:09:05;;;;;;;27.05;10.98;;;;;;;;;;5091089;28;20043;-79
2021/04/21 05:11:35;;;;;;;26.65;10.95;;;;;;;;;;5090469;28;20126;-81
2021/04/21 05:14:02;;;;;;;26.55;11.38;;;;;;;;;;5091041;28;20052;-85
2021/04/21 05:16:51;;;;;;;35.25;12.65;;;;;;;;;;5090819;28;20129;-86
2021/04/21 05:19:17;;;;;;;34.58;11.52;;;;;;;;;;5089308;28;20056;-82
2021/04/21 05:22:03;;;;;;;30.63;12.57;;;;;;;;;;5091083;28;20079;-81
2021/04/21 05:24:55;;;;;;;30.15;14.57;;;;;;;;;;5089621;28;20464;-79
2021/04/21 05:27:28;;;;;;;37.65;15.18;;;;;;;;;;5088405;28;20079;-78
2021/04/21 05:30:10;;;;;;;30.98;15.05;;;;;;;;;;5087355;28;20076;-82
2021/04/21 05:32:56;;;;;;;33.28;15.55;;;;;;;;;;5093860;28;20071;-83
2021/04/21 05:35:24;;;;;;;46.55;15.48;;;;;;;;;;5090751;28;20128;-82
2021/04/21 05:38:19;;;;;;;42.75;15.48;;;;;;;;;;5091234;28;20051;-82
2021/04/21 05:40:56;;;;;;;72.27;17.60;;;;;;;;;;5091262;28;20451;-82
2021/04/21 05:43:26;;;;;;;30.25;14.98;;;;;;;;;;5090923;28;20075;-82
2021/04/21 05:45:54;;;;;;;25.10;14.13;;;;;;;;;;5090471;28;20138;-82
2021/04/21 05:48:29;;;;;;;30.58;14.15;;;;;;;;;;5091271;28;20101;-82
2021/04/21 05:51:02;;;;;;;39.08;15.65;;;;;;;;;;5091576;28;20523;-82
2021/04/21 05:53:49;;;;;;;29.70;14.00;;;;;;;;;;5094418;28;20067;-82
2021/04/21 05:56:35;;;;;;;35.22;15.25;;;;;;;;;;5094839;28;20079;-81
2021/04/21 05:59:01;;;;;;;;;;;;;;;;;;5097653;28;20574;-82
2021/04/21 06:01:40;;;;;;;38.17;17.58;;;;;;;;;;5095180;28;20632;-82
2021/04/21 06:04:09;;;;;;;36.03;15.93;;;;;;;;;;5106120;28;20093;-82
2021/04/21 06:06:35;;;;;;;34.60;15.70;;;;;;;;;;5094462;28;20117;-82
2021/04/21 06:09:07;;;;;;;39.13;16.92;;;;;;;;;;5094571;28;20139;-82
2021/04/21 06:11:34;;;;;;;32.35;15.77;;;;;;;;;;5096161;28;20044;-82
2021/04/21 06:14:02;;;;;;;32.13;15.80;;;;;;;;;;5094644;28;20044;-83
2021/04/21 06:16:38;;;;;;;33.33;14.90;;;;;;;;;;5094466;28;20704;-82
2021/04/21 06:19:06;;;;;;;33.53;15.95;;;;;;;;;;5095368;28;20502;-82
2021/04/21 06:21:34;;;;;;;29.75;15.20;;;;;;;;;;5095254;28;20047;-83
2021/04/21 06:24:21;;;;;;;30.20;13.70;;;;;;;;;;5094055;28;20708;-83
2021/04/21 06:26:48;;;;;;;28.23;13.77;;;;;;;;;;5094177;28;20416;-82
2021/04/21 06:29:15;;;;;;;22.67;12.93;;;;;;;;;;5094275;28;20398;-82
2021/04/21 06:31:50;;;;;;;22.70;12.48;;;;;;;;;;5091882;28;20833;-82
2021/04/21 06:34:17;;;;;;;29.95;14.30;;;;;;;;;;5093668;28;20058;-82
2021/04/21 06:36:44;;;;;;;25.02;13.40;;;;;;;;;;5094363;28;20051;-82
2021/04/21 06:39:12;;;;;;;23.83;13.02;;;;;;;;;;5095521;28;20113;-82
2021/04/21 06:41:43;;;;;;;21.48;12.75;;;;;;;;;;5094402;28;20056;-82
2021/04/21 06:44:10;;;;;;;30.92;13.13;;;;;;;;;;5094217;28;20466;-83
2021/04/21 06:46:37;;;;;;;27.45;13.70;;;;;;;;;;5094060;28;20144;-83
2021/04/21 06:52:17;;;;;;;27.17;14.07;;;;;;;;;;5092906;28;20446;-83
2021/04/21 06:54:44;;;;;;;26.10;14.10;;;;;;;;;;5092749;28;20052;-84
2021/04/21 06:57:12;;;;;;;24.60;14.10;;;;;;;;;;5090684;28;20058;-82
2021/04/21 07:02:48;;;;;;;24.60;14.70;;;;;;;;;;5104821;28;20052;-82
2021/04/21 07:05:35;;;;;;;24.70;14.73;;;;;;;;;;5087205;28;20051;-84
2021/04/21 07:08:06;;;;;;;29.85;15.02;;;;;;;;;;5095585;28;20051;-83
2021/04/21 07:10:34;;;;;;;24.10;14.52;;;;;;;;;;5107631;28;20048;-83
2021/04/21 07:13:02;;;;;;;29.95;15.75;;;;;;;;;;5057469;28;20048;-83
2021/04/21 07:15:30;;;;;;;28.95;15.88;;;;;;;;;;5082063;28;20120;-82
2021/04/21 07:17:57;;;;;;;27.70;16.10;;;;;;;;;;5097553;28;20123;-83
2021/04/21 07:20:24;;;;;;;26.45;16.55;;;;;;;;;;5096039;28;20040;-83
2021/04/21 07:22:52;;;;;;;37.45;16.00;;;;;;;;;;5066958;28;20455;-80
2021/04/21 07:25:19;;;;;;;25.77;15.35;;;;;;;;;;5067990;28;20076;-80
2021/04/21 07:27:50;;;;;;;24.30;15.25;;;;;;;;;;5090151;28;20048;-84
2021/04/21 07:30:24;;;;;;;26.45;15.50;;;;;;;;;;5080742;28;20416;-81
2021/04/21 07:32:51;;;;;;;26.83;15.37;;;;;;;;;;5100005;28;20059;-82
2021/04/21 07:35:22;;;;;;;23.15;15.85;;;;;;;;;;5068286;28;20048;-83
2021/04/21 07:37:50;;;;;;;23.35;14.40;;;;;;;;;;5081504;28;20057;-82
2021/04/21 07:40:20;;;;;;;22.85;15.35;;;;;;;;;;5073684;28;20040;-81
2021/04/21 07:42:47;;;;;;;26.63;16.33;;;;;;;;;;5058374;28;20044;-80
2021/04/21 07:45:16;;;;;;;33.72;16.13;;;;;;;;;;5082531;28;20488;-81
2021/04/21 07:47:44;;;;;;;24.50;15.90;;;;;;;;;;5075234;28;20512;-81
2021/04/21 07:50:11;;;;;;;27.48;16.52;;;;;;;;;;5093809;28;20052;-81
2021/04/21 07:52:40;;;;;;;24.52;15.68;;;;;;;;;;5069045;28;20094;-81
2021/04/21 07:55:10;;;;;;;27.27;16.08;;;;;;;;;;5086987;28;20040;-82
2021/04/21 07:57:44;;;;;;;23.65;16.42;;;;;;;;;;5070992;28;20552;-80
2021/04/21 08:00:12;;;;;;;25.27;16.85;;;;;;;;;;5084937;28;20755;-80
2021/04/21 08:02:40;;;;;;;26.75;16.25;;;;;;;;;;5058852;28;20783;-80
2021/04/21 08:05:10;;;;;;;27.20;16.45;;;;;;;;;;5067562;28;20492;-82
2021/04/21 08:07:43;;;;;;;23.58;16.83;;;;;;;;;;5058467;28;20092;-81
2021/04/21 08:10:16;;;;;;;29.33;17.30;;;;;;;;;;5078321;28;20062;-81
2021/04/21 08:12:46;;;;;;;36.10;18.45;;;;;;;;;;5056582;28;20783;-82
2021/04/21 08:15:16;;;;;;;26.70;16.88;;;;;;;;;;5097647;28;20048;-81
2021/04/21 08:17:53;;;;;;;33.83;17.08;;;;;;;;;;5057646;28;20106;-81
2021/04/21 08:20:31;;;;;;;29.70;17.42;;;;;;;;;;5088495;28;20109;-79
2021/04/21 08:22:59;;;;;;;29.45;18.17;;;;;;;;;;5063571;28;20733;-79
2021/04/21 08:25:26;;;;;;;25.13;17.45;;;;;;;;;;5084612;28;20089;-79
2021/04/21 08:27:53;;;;;;;24.92;17.75;;;;;;;;;;5076807;28;20052;-83
2021/04/21 08:30:20;;;;;;;28.27;16.85;;;;;;;;;;5087760;28;20588;-80
2021/04/21 08:32:50;;;;;;;31.10;19.90;;;;;;;;;;5097239;28;20075;-82
2021/04/21 08:35:18;;;;;;;30.55;20.50;;;;;;;;;;5088321;28;20152;-80
2021/04/21 08:37:45;;;;;;;28.88;20.10;;;;;;;;;;5078092;28;20055;-80
2021/04/21 08:40:13;;;;;;;28.90;19.33;;;;;;;;;;5083970;28;20097;-80
2021/04/21 08:42:42;;;;;;;27.35;18.63;;;;;;;;;;5062983;28;20131;-79
2021/04/21 08:45:10;;;;;;;28.75;19.25;;;;;;;;;;5058370;28;20102;-80
2021/04/21 08:47:40;;;;;;;28.67;18.92;;;;;;;;;;5066694;28;20044;-81
2021/04/21 08:50:08;;;;;;;28.83;18.55;;;;;;;;;;5064631;28;20593;-80
2021/04/21 08:52:46;;;;;;;26.15;17.85;;;;;;;;;;5059267;28;20131;-82
2021/04/21 08:55:19;;;;;;;33.03;19.90;;;;;;;;;;5060843;28;20044;-83
2021/04/21 08:57:46;;;;;;;25.65;18.42;;;;;;;;;;5068117;28;20044;-83
2021/04/21 09:00:14;;;;;;;31.52;18.58;;;;;;;;;;5058986;28;20106;-84
2021/04/21 09:02:42;;;;;;;29.33;17.08;;;;;;;;;;5098909;28;20408;-81
2021/04/21 09:05:12;;;;;;;25.30;16.88;;;;;;;;;;5071039;28;20101;-82
2021/04/21 09:07:41;;;;;;;28.02;16.52;;;;;;;;;;5083595;28;20044;-83
2021/04/21 09:10:09;;;;;;;24.15;15.82;;;;;;;;;;5074474;28;20047;-83
2021/04/21 09:12:36;;;;;;;24.50;16.40;;;;;;;;;;5064946;28;20223;-79
2021/04/21 09:15:04;;;;;;;24.52;17.15;;;;;;;;;;5077092;28;20145;-80
2021/04/21 09:17:31;;;;;;;27.40;17.42;;;;;;;;;;5058045;28;20052;-80
2021/04/21 09:20:01;;;;;;;29.20;17.17;;;;;;;;;;5086710;28;20132;-82
2021/04/21 09:22:55;;;;;;;26.77;17.70;;;;;;;;;;5084036;28;20045;-82
2021/04/21 09:25:22;;;;;;;27.65;17.27;;;;;;;;;;5086524;28;20068;-83
2021/04/21 09:27:55;;;;;;;34.75;19.35;;;;;;;;;;5087478;28;20045;-81
2021/04/21 09:30:23;;;;;;;36.58;19.98;;;;;;;;;;5087039;28;20094;-80
2021/04/21 09:32:53;;;;;;;32.13;18.27;;;;;;;;;;5082737;28;20052;-81
2021/04/21 09:35:22;;;;;;;27.33;17.45;;;;;;;;;;5093308;28;20050;-87
2021/04/21 09:38:03;;;;;;;26.67;18.88;;;;;;;;;;5110827;28;20552;-81
2021/04/21 09:40:34;;;;;;;24.70;16.77;;;;;;;;;;5090680;28;20404;-83
2021/04/21 09:43:01;;;;;;;24.05;16.90;;;;;;;;;;5074284;28;20084;-82
2021/04/21 09:45:35;;;;;;;47.45;19.35;;;;;;;;;;5074852;28;20401;-83
2021/04/21 09:48:09;;;;;;;26.35;18.33;;;;;;;;;;5073927;28;20051;-83
2021/04/21 09:50:38;;;;;;;23.00;17.42;;;;;;;;;;5092388;28;20121;-82
2021/04/21 09:53:25;;;;;;;30.73;19.52;;;;;;;;;;5091605;28;20097;-81
2021/04/21 09:56:01;;;;;;;34.63;19.48;;;;;;;;;;5092325;28;20101;-82
2021/04/21 09:58:38;;;;;;;28.02;19.17;;;;;;;;;;5091897;28;20552;-81
2021/04/21 10:01:22;;;;;;;30.73;19.67;;;;;;;;;;5104561;28;20039;-81
2021/04/21 10:04:05;;;;;;;31.05;21.38;;;;;;;;;;5092184;28;20155;-80
2021/04/21 10:06:35;;;;;;;39.90;22.23;;;;;;;;;;5090469;28;20495;-80
2021/04/21 10:09:03;;;;;;;35.92;21.30;;;;;;;;;;5074029;28;20063;-80
2021/04/21 10:11:30;;;;;;;35.30;20.98;;;;;;;;;;5089023;28;20052;-80
2021/04/21 10:13:57;;;;;;;37.10;21.77;;;;;;;;;;5071304;28;20095;-80
2021/04/21 10:16:25;;;;;;;33.33;21.20;;;;;;;;;;5075675;28;20129;-79
2021/04/21 10:18:52;;;;;;;33.50;19.17;;;;;;;;;;5090152;28;20141;-80
2021/04/21 10:21:20;;;;;;;29.55;19.17;;;;;;;;;;5074610;28;20369;-80
2021/04/21 10:23:48;;;;;;;33.88;19.45;;;;;;;;;;5074923;28;20059;-79
2021/04/21 10:26:16;;;;;;;38.05;20.58;;;;;;;;;;5070097;28;20127;-80
2021/04/21 10:28:44;;;;;;;34.83;21.88;;;;;;;;;;5086623;28;20052;-80
2021/04/21 10:31:13;;;;;;;37.08;22.92;;;;;;;;;;5093308;28;20071;-79
2021/04/21 10:33:41;;;;;;;37.80;22.75;;;;;;;;;;5088041;28;20056;-79
2021/04/21 10:36:09;;;;;;;49.38;23.60;;;;;;;;;;5075591;28;20488;-79
2021/04/21 10:38:40;;;;;;;41.80;23.58;;;;;;;;;;5079045;28;20071;-81
2021/04/21 10:41:22;;;;;;;40.10;24.23;;;;;;;;;;5082754;28;20033;-84
2021/04/21 10:43:50;;;;;;;35.63;22.40;;;;;;;;;;5055730;28;20141;-81
2021/04/21 10:46:17;;;;;;;44.85;23.52;;;;;;;;;;5075617;28;20051;-81
2021/04/21 10:48:46;;;;;;;42.65;23.92;;;;;;;;;;5075525;28;20139;-81
2021/04/21 10:54:32;;;;;;;40.90;23.23;;;;;;;;;;5086004;28;20072;-83
2021/04/21 10:57:20;;;;;;;42.65;23.15;;;;;;;;;;5071352;28;20401;-82
2021/04/21 11:00:06;;;;;;;40.20;22.48;;;;;;;;;;5058010;28;20040;-84
2021/04/21 11:02:33;;;;;;;;;;;;;;;;;;5076215;28;20044;-83
2021/04/21 11:05:04;;;;;;;43.10;23.20;;;;;;;;;;5078385;28;19946;-83
2021/04/21 11:07:38;;;;;;;40.15;23.65;;;;;;;;;;5077140;28;20059;-82
2021/04/21 11:10:08;;;;;;;44.13;23.23;;;;;;;;;;5076446;28;20044;-81
2021/04/21 11:12:49;;;;;;;38.65;22.20;;;;;;;;;;5074120;28;20048;-81
2021/04/21 11:15:35;;;;;;;42.72;21.38;;;;;;;;;;5074859;28;20041;-82
2021/04/21 11:18:13;;;;;;;42.38;22.20;;;;;;;;;;5077471;28;20492;-82
2021/04/21 11:20:46;;;;;;;36.60;20.45;;;;;;;;;;5077101;28;20048;-82
2021/04/21 11:23:32;;;;;;;38.05;18.50;;;;;;;;;;5077984;28;20101;-81
2021/04/21 11:26:18;;;;;;;32.25;18.25;;;;;;;;;;5074536;28;20076;-81
2021/04/21 11:28:48;;;;;;;;;;;;;;;;;;5077564;28;20058;-81
2021/04/21 11:31:15;;;;;;;40.63;17.63;;;;;;;;;;5082900;28;20356;-81
2021/04/21 11:33:55;;;;;;;39.25;18.52;;;;;;;;;;5076834;28;20056;-81
2021/04/21 11:36:36;;;;;;;42.13;18.92;;;;;;;;;;5073833;28;20108;-81
2021/04/21 11:39:04;;;;;;;32.03;16.10;;;;;;;;;;5073326;28;20052;-81
2021/04/21 11:41:47;;;;;;;28.15;15.65;;;;;;;;;;5079652;28;20489;-83
2021/04/21 11:44:36;;;;;;;32.90;15.90;;;;;;;;;;5084873;28;20147;-85
2021/04/21 11:47:03;;;;;;;29.05;16.15;;;;;;;;;;5089108;28;20130;-88
2021/04/21 11:49:51;;;;;;;25.58;15.20;;;;;;;;;;5086810;28;20429;-81
2021/04/21 11:55:27;;;;;;;33.38;15.07;;;;;;;;;;5074171;28;20135;-82
2021/04/21 11:57:57;;;;;;;30.75;14.75;;;;;;;;;;5067704;28;20105;-84
2021/04/21 12:00:50;;;;;;;35.35;14.75;;;;;;;;;;5075213;28;20040;-82
2021/04/21 12:03:23;;;;;;;37.80;18.38;;;;;;;;;;5064891;28;20067;-75
2021/04/21 12:05:56;;;;;;;60.80;26.20;;;;;;;;;;5072724;28;20050;-76
2021/04/21 12:08:24;;;;;;;29.67;13.63;;;;;;;;;;5067996;28;20125;-76
2021/04/21 12:10:51;;;;;;;27.45;13.52;;;;;;;;;;5083031;28;20044;-76
2021/04/21 12:13:23;;;;;;;24.80;9.93;;;;;;;;;;5070667;28;20134;-77
2021/04/21 12:15:54;;;;;;;15.82;8.30;;;;;;;;;;5085570;28;20152;-76
2021/04/21 12:18:27;;;;;;;18.50;8.73;;;;;;;;;;5069116;28;20570;-75
2021/04/21 12:20:56;;;;;;;17.42;8.43;;;;;;;;;;5068687;28;20101;-76
2021/04/21 12:23:30;;;;;;;20.48;9.25;;;;;;;;;;5070759;28;20113;-75
2021/04/21 12:25:59;;;;;;;20.85;10.75;;;;;;;;;;5071753;28;20105;-77
2021/04/21 12:28:26;;;;;;;20.13;8.63;;;;;;;;;;5070959;28;20110;-78
2021/04/21 12:30:54;;;;;;;16.67;8.90;;;;;;;;;;5068286;28;20083;-78
2021/04/21 12:33:22;;;;;;;17.00;8.63;;;;;;;;;;5071852;28;20060;-77
2021/04/21 12:35:52;;;;;;;15.52;8.32;;;;;;;;;;5076117;28;20133;-77
2021/04/21 12:38:26;;;;;;;14.77;7.43;;;;;;;;;;5065487;28;20076;-81
2021/04/21 12:40:53;;;;;;;14.77;7.60;;;;;;;;;;5067730;28;20056;-75
2021/04/21 12:43:20;;;;;;;18.67;9.13;;;;;;;;;;5067317;28;20052;-75
2021/04/21 12:45:47;;;;;;;24.13;9.38;;;;;;;;;;5069841;28;20091;-76
2021/04/21 12:48:25;;;;;;;16.20;8.27;;;;;;;;;;5078617;28;20093;-76
2021/04/21 12:50:57;;;;;;;15.52;7.97;;;;;;;;;;5072028;28;20560;-77
2021/04/21 12:53:32;;;;;;;15.57;8.77;;;;;;;;;;5070008;28;20118;-86
2021/04/21 12:56:06;;;;;;;18.77;8.80;;;;;;;;;;5075072;28;20044;-82
2021/04/21 12:58:35;;;;;;;21.73;9.35;;;;;;;;;;5066745;28;20051;-84
2021/04/21 13:01:06;;;;;;;14.25;9.00;;;;;;;;;;5092586;28;20518;-84
2021/04/21 13:03:34;;;;;;;20.70;10.05;;;;;;;;;;5074024;28;20072;-84
2021/04/21 13:06:01;;;;;;;19.08;9.00;;;;;;;;;;5098538;28;20055;-84
2021/04/21 13:08:29;;;;;;;13.27;8.38;;;;;;;;;;5080942;28;20127;-86
2021/04/21 13:10:57;;;;;;;19.60;10.63;;;;;;;;;;5070813;28;20400;-85
2021/04/21 13:13:26;;;;;;;18.52;10.02;;;;;;;;;;5081005;28;20079;-85
2021/04/21 13:15:54;;;;;;;18.13;10.05;;;;;;;;;;5088623;28;20052;-82
2021/04/21 13:18:28;;;;;;;16.58;9.93;;;;;;;;;;5085507;28;20189;-82
2021/04/21 13:20:55;;;;;;;23.63;9.70;;;;;;;;;;5082672;28;20044;-83
2021/04/21 13:23:23;;;;;;;25.38;11.07;;;;;;;;;;5073898;28;20493;-83
2021/04/21 13:26:07;;;;;;;21.60;10.80;;;;;;;;;;5071164;28;20050;-84
2021/04/21 13:28:37;;;;;;;24.92;11.40;;;;;;;;;;5071895;28;20083;-83
2021/04/21 13:31:15;;;;;;;22.95;11.63;;;;;;;;;;5071335;28;20568;-84
2021/04/21 13:33:43;;;;;;;25.73;12.40;;;;;;;;;;5078307;28;20059;-81
2021/04/21 13:36:10;;;;;;;36.70;12.20;;;;;;;;;;5103674;28;20062;-85
2021/04/21 13:38:38;;;;;;;23.55;11.60;;;;;;;;;;5093456;28;20444;-84
2021/04/21 13:41:06;;;;;;;19.92;10.90;;;;;;;;;;5095178;28;20051;-84
2021/04/21 13:43:33;;;;;;;23.02;11.35;;;;;;;;;;5112781;28;20079;-85
2021/04/21 13:46:00;;;;;;;23.98;11.43;;;;;;;;;;5094608;28;20151;-83
2021/04/21 13:48:26;;;;;;;22.23;11.20;;;;;;;;;;5094385;28;20126;-84
2021/04/21 13:50:54;;;;;;;19.38;10.68;;;;;;;;;;5083868;28;20101;-84
2021/04/21 13:53:20;;;;;;;20.75;10.82;;;;;;;;;;5085508;28;20044;-86
2021/04/21 13:55:47;;;;;;;20.38;11.00;;;;;;;;;;5071253;28;20814;-85
2021/04/21 13:58:14;;;;;;;17.65;10.20;;;;;;;;;;5081243;28;20049;-82
2021/04/21 14:00:41;;;;;;;21.23;9.25;;;;;;;;;;5073734;28;20056;-81
2021/04/21 14:03:09;;;;;;;18.05;9.02;;;;;;;;;;5072031;28;20080;-82
2021/04/21 14:05:36;;;;;;;14.05;8.20;;;;;;;;;;5059220;28;20056;-83
2021/04/21 14:08:04;;;;;;;23.88;8.85;;;;;;;;;;5081235;28;20048;-82
2021/04/21 14:10:32;;;;;;;18.58;8.55;;;;;;;;;;5072644;28;20189;-82
2021/04/21 14:13:00;;;;;;;23.58;9.05;;;;;;;;;;5061440;28;20045;-83
2021/04/21 14:15:27;;;;;;;18.88;8.35;;;;;;;;;;5090259;28;20607;-84
2021/04/21 14:17:54;;;;;;;23.23;8.35;;;;;;;;;;5075693;28;20052;-77
2021/04/21 14:20:22;;;;;;;17.23;8.52;;;;;;;;;;5068292;28;20839;-77
2021/04/21 14:22:50;;;;;;;19.45;7.75;;;;;;;;;;5094067;28;20044;-78
2021/04/21 14:25:18;;;;;;;15.00;7.53;;;;;;;;;;5071223;28;20090;-78
2021/04/21 14:27:46;;;;;;;12.65;6.60;;;;;;;;;;5077329;28;20076;-78
2021/04/21 14:30:14;;;;;;;13.27;7.57;;;;;;;;;;5071694;28;20048;-77
2021/04/21 14:32:41;;;;;;;17.73;6.95;;;;;;;;;;5086083;28;20215;-78
2021/04/21 14:35:09;;;;;;;11.68;6.38;;;;;;;;;;5070272;28;20143;-78
2021/04/21 14:37:40;;;;;;;19.02;7.03;;;;;;;;;;5071814;28;20076;-78
2021/04/21 14:40:07;;;;;;;16.65;7.45;;;;;;;;;;5071206;28;20093;-78
2021/04/21 14:42:34;;;;;;;17.50;6.07;;;;;;;;;;5068800;28;20167;-78
2021/04/21 14:45:01;;;;;;;11.98;5.28;;;;;;;;;;5070075;28;20060;-78
2021/04/21 14:47:32;;;;;;;14.90;3.90;;;;;;;;;;5069990;28;20497;-78
2021/04/21 14:49:59;;;;;;;13.20;3.58;;;;;;;;;;5072281;28;20048;-78
2021/04/21 14:52:26;;;;;;;16.88;3.20;;;;;;;;;;5072584;28;20052;-78
2021/04/21 14:54:54;;;;;;;12.93;2.67;;;;;;;;;;5071480;28;20129;-78
2021/04/21 14:57:21;;;;;;;14.65;3.53;;;;;;;;;;5071504;28;20132;-79
2021/04/21 14:59:48;;;;;;;12.88;2.47;;;;;;;;;;5071538;28;20079;-79
2021/04/21 15:02:14;;;;;;;13.18;3.03;;;;;;;;;;5069232;28;20053;-79
2021/04/21 15:04:41;;;;;;;9.30;2.80;;;;;;;;;;5073969;28;20571;-79